sensor_id;sensor_type;location;lat;lon;timestamp;pressure;altitude;pressure_sealevel;temperature;humidity
26178;BME280;13924;47.670;10.310;2023-12-28T00:00:38;93480;;;2.5;100.0
26178;BME280;13924;47.670;10.310;2023-12-28T00:15:38;93480;;;2.5;100.0
26178;BME280;13924;47.670;10.310;2023-12-28T00:30:38;93500;;;2.8;100.0
26178;BME280;13924;47.670;10.310;2023-12-28T00:45:39;93500;;;2.4;100.0
26178;BME280;13924;47.670;10.310;2023-12-28T01:00:39;93520;;;2.2;100.0
26178;BME280;13924;47.670;10.310;2023-12-28T01:15:40;93520;;;2.4;100.0
26178;BME280;13924;47.670;10.310;2023-12-28T01:30:41;93550;;;2.3;100.0
26178;BME280;13924;47.670;10.310;2023-12-28T01:45:42;93550;;;2.4;100.0
26178;BME280;13924;47.670;10.310;2023-12-28T02:00:47;93550;;;2.4;100.0
26178;BME280;13924;47.670;10.310;2023-12-28T02:01:26;93550;;;2.6;100.0
26178;BME280;13924;47.670;10.310;2023-12-28T02:15:47;93560;;;2.3;100.0
26178;BME280;13924;47.670;10.310;2023-12-28T02:30:47;93570;;;2.4;100.0
26178;BME280;13924;47.670;10.310;2023-12-28T02:45:45;93570;;;2.4;100.0
26178;BME280;13924;47.670;10.310;2023-12-28T03:00:46;93560;;;1.8;100.0
26178;BME280;13924;47.670;10.310;2023-12-28T03:15:47;93580;;;1.7;100.0
26178;BME280;13924;47.670;10.310;2023-12-28T03:30:47;93580;;;1.6;100.0
26178;BME280;13924;47.670;10.310;2023-12-28T03:45:48;93590;;;1.7;100.0
26178;BME280;13924;47.670;10.310;2023-12-28T04:00:48;93580;;;2.1;100.0
26178;BME280;13924;47.670;10.310;2023-12-28T04:15:48;93580;;;2.0;100.0
26178;BME280;13924;47.670;10.310;2023-12-28T04:30:48;93590;;;2.0;100.0
26178;BME280;13924;47.670;10.310;2023-12-28T04:45:52;93610;;;1.9;100.0
26178;BME280;13924;47.670;10.310;2023-12-28T05:00:49;93590;;;1.9;100.0
26178;BME280;13924;47.670;10.310;2023-12-28T05:15:52;93600;;;2.0;100.0
26178;BME280;13924;47.670;10.310;2023-12-28T05:30:51;93580;;;2.1;100.0
26178;BME280;13924;47.670;10.310;2023-12-28T05:45:52;93580;;;1.7;100.0
26178;BME280;13924;47.670;10.310;2023-12-28T06:00:55;93580;;;2.6;100.0
26178;BME280;13924;47.670;10.310;2023-12-28T06:15:56;93580;;;2.6;100.0
26178;BME280;13924;47.670;10.310;2023-12-28T06:30:57;93560;;;1.9;100.0
26178;BME280;13924;47.670;10.310;2023-12-28T06:45:56;93540;;;2.2;100.0
26178;BME280;13924;47.670;10.310;2023-12-28T06:50:50;93530;;;2.2;100.0
26178;BME280;13924;47.670;10.310;2023-12-28T07:05:50;93550;;;2.4;100.0
26178;BME280;13924;47.670;10.310;2023-12-28T07:20:52;93550;;;3.0;100.0
26178;BME280;13924;47.670;10.310;2023-12-28T07:36:02;93550;;;3.0;100.0
26178;BME280;13924;47.670;10.310;2023-12-28T07:50:52;93530;;;3.2;100.0
26178;BME280;13924;47.670;10.310;2023-12-28T08:05:56;93530;;;3.8;100.0
26178;BME280;13924;47.670;10.310;2023-12-28T08:20:53;93540;;;4.6;100.0
26178;BME280;13924;47.670;10.310;2023-12-28T08:35:57;93570;;;4.7;100.0
26178;BME280;13924;47.670;10.310;2023-12-28T08:50:55;93580;;;5.0;100.0
26178;BME280;13924;47.670;10.310;2023-12-28T09:06:00;93580;;;5.0;100.0
26178;BME280;13924;47.670;10.310;2023-12-28T09:20:56;93580;;;6.7;76.7
26178;BME280;13924;47.670;10.310;2023-12-28T09:35:58;93580;;;7.4;65.8
26178;BME280;13924;47.670;10.310;2023-12-28T09:50:59;93570;;;8.2;63.0
26178;BME280;13924;47.670;10.310;2023-12-28T10:06:00;93570;;;8.2;63.0
26178;BME280;13924;47.670;10.310;2023-12-28T10:21:08;93550;;;7.9;68.4
26178;BME280;13924;47.670;10.310;2023-12-28T10:36:04;93530;;;8.4;68.7
26178;BME280;13924;47.670;10.310;2023-12-28T10:51:20;93530;;;8.4;68.7
26178;BME280;13924;47.670;10.310;2023-12-28T11:06:12;93530;;;8.0;73.4
26178;BME280;13924;47.670;10.310;2023-12-28T11:21:04;93530;;;8.5;77.3
26178;BME280;13924;47.670;10.310;2023-12-28T11:36:01;93520;;;9.2;57.6
26178;BME280;13924;47.670;10.310;2023-12-28T11:51:03;93520;;;9.2;51.9
26178;BME280;13924;47.670;10.310;2023-12-28T12:06:04;93510;;;9.6;48.6
26178;BME280;13924;47.670;10.310;2023-12-28T12:21:04;93510;;;9.6;48.6
26178;BME280;13924;47.670;10.310;2023-12-28T12:36:06;93470;;;9.3;53.0
26178;BME280;13924;47.670;10.310;2023-12-28T12:51:06;93470;;;9.4;51.7
26178;BME280;13924;47.670;10.310;2023-12-28T13:06:07;93460;;;9.2;52.1
26178;BME280;13924;47.670;10.310;2023-12-28T13:21:07;93460;;;9.5;52.1
26178;BME280;13924;47.670;10.310;2023-12-28T13:36:10;93460;;;9.5;52.1
26178;BME280;13924;47.670;10.310;2023-12-28T13:51:11;93480;;;9.7;48.9
26178;BME280;13924;47.670;10.310;2023-12-28T14:06:11;93480;;;9.4;51.5
26178;BME280;13924;47.670;10.310;2023-12-28T14:21:13;93480;;;9.2;53.3
26178;BME280;13924;47.670;10.310;2023-12-28T14:36:32;93500;;;9.3;53.1
26178;BME280;13924;47.670;10.310;2023-12-28T14:51:10;93500;;;9.2;52.9
26178;BME280;13924;47.670;10.310;2023-12-28T15:06:12;93500;;;9.0;54.2
26178;BME280;13924;47.670;10.310;2023-12-28T15:21:13;93480;;;8.9;56.3
26178;BME280;13924;47.670;10.310;2023-12-28T15:36:13;93500;;;9.0;55.6
26178;BME280;13924;47.670;10.310;2023-12-28T15:51:13;93470;;;9.0;55.7
26178;BME280;13924;47.670;10.310;2023-12-28T16:06:14;93470;;;8.6;59.2
26178;BME280;13924;47.670;10.310;2023-12-28T16:21:21;93460;;;8.4;58.4
26178;BME280;13924;47.670;10.310;2023-12-28T16:36:19;93470;;;8.5;59.1
26178;BME280;13924;47.670;10.310;2023-12-28T16:51:17;93480;;;7.8;71.9
26178;BME280;13924;47.670;10.310;2023-12-28T17:06:17;93470;;;7.5;85.0
26178;BME280;13924;47.670;10.310;2023-12-28T17:21:22;93470;;;7.4;89.6
26178;BME280;13924;47.670;10.310;2023-12-28T17:36:19;93460;;;7.2;93.4
26178;BME280;13924;47.670;10.310;2023-12-28T17:51:21;93450;;;7.3;86.2
26178;BME280;13924;47.670;10.310;2023-12-28T18:06:19;93440;;;7.2;93.2
26178;BME280;13924;47.670;10.310;2023-12-28T18:21:31;93440;;;7.2;93.2
26178;BME280;13924;47.670;10.310;2023-12-28T18:36:26;93430;;;7.8;83.3
26178;BME280;13924;47.670;10.310;2023-12-28T18:51:22;93420;;;6.9;100.0
26178;BME280;13924;47.670;10.310;2023-12-28T19:06:25;93420;;;6.9;100.0
26178;BME280;13924;47.670;10.310;2023-12-28T19:21:24;93450;;;7.5;92.8
26178;BME280;13924;47.670;10.310;2023-12-28T19:36:23;93450;;;7.4;97.0
26178;BME280;13924;47.670;10.310;2023-12-28T19:51:25;93460;;;6.9;100.0
26178;BME280;13924;47.670;10.310;2023-12-28T20:06:25;93460;;;6.6;100.0
26178;BME280;13924;47.670;10.310;2023-12-28T20:21:26;93480;;;6.9;100.0
26178;BME280;13924;47.670;10.310;2023-12-28T20:36:29;93480;;;6.9;100.0
26178;BME280;13924;47.670;10.310;2023-12-28T20:51:27;93490;;;7.7;100.0
26178;BME280;13924;47.670;10.310;2023-12-28T21:06:28;93450;;;7.6;100.0
26178;BME280;13924;47.670;10.310;2023-12-28T21:21:33;93460;;;7.6;100.0
26178;BME280;13924;47.670;10.310;2023-12-28T21:36:30;93480;;;7.4;100.0
26178;BME280;13924;47.670;10.310;2023-12-28T21:51:29;93490;;;7.6;100.0
26178;BME280;13924;47.670;10.310;2023-12-28T22:06:30;93520;;;7.4;100.0
26178;BME280;13924;47.670;10.310;2023-12-28T22:21:31;93540;;;7.4;100.0
26178;BME280;13924;47.670;10.310;2023-12-28T22:36:32;93560;;;7.2;100.0
26178;BME280;13924;47.670;10.310;2023-12-28T22:51:40;93560;;;7.2;100.0
26178;BME280;13924;47.670;10.310;2023-12-28T23:00:42;93580;;;7.2;100.0
26178;BME280;13924;47.670;10.310;2023-12-28T23:15:48;93580;;;7.2;100.0
26178;BME280;13924;47.670;10.310;2023-12-28T23:30:44;93480;;;6.7;100.0
26178;BME280;13924;47.670;10.310;2023-12-28T23:45:43;93480;;;6.7;100.0
